Latest Weather Observations for Stawell

IDV60801

Issued at 12:05 pm EST Thursday 21 August 2014 (issued every 30 minutes, with the page automatically refreshed every 10 minutes)

About weather observations | Map of weather stations | Latest weather observations for VIC | Other Formats
Station Details ID: 079105 Name: STAWELL AERODROME Lat: -37.07 Lon: 142.74 Height: 235.36 m
Data from the previous 72 hours. | See also: Recent months at Stawell
Date/Time
EST
Temp
°C
App
Temp
°C
Dew
Point
Rel
Hum
%
Delta-T
°C
Wind Press
QNH
hPa
Press
MSL
hPa
Rain
since 9 am
mm
Dir
 
Spd
km/h
Gust
km/h
Spd
kts
Gust
kts
21/12:00pm 11.6 7.9 4.3 61 3.3 NW 13 19 7 10 1026.8 1028.1 0.0
21/11:30am 11.0 7.8 5.3 68 2.6 WNW 11 17 6 9 1027.3 - 0.0
21/11:00am 10.1 7.7 5.3 72 2.2 NW 7 15 4 8 1027.4 - 0.0
21/10:30am 9.5 7.2 4.9 73 2.1 NW 6 7 3 4 1027.6 - 0.0
21/10:00am 9.0 7.7 4.2 72 2.1 CALM 0 0 0 0 1027.8 - 0.0
21/09:30am 8.4 7.3 5.0 79 1.5 CALM 0 0 0 0 1027.7 - 0.0
21/09:00am 6.5 5.3 4.7 88 0.8 CALM 0 0 0 0 1027.7 1028.9 0.0
21/08:30am 4.7 2.6 3.7 93 0.4 SE 4 6 2 3 1027.4 - 0.0
21/08:00am 3.2 0.5 2.9 98 0.1 SE 6 6 3 3 1027.1 - 0.0
21/07:30am 1.7 0.0 1.6 99 0.0 CALM 0 0 0 0 1026.8 - 0.0
21/07:00am 1.9 0.2 1.6 98 0.1 CALM 0 0 0 0 1026.5 - 0.0
21/06:30am 2.7 1.1 2.4 98 0.1 CALM 0 0 0 0 1026.3 - 0.0
21/06:00am 1.9 0.1 1.5 97 0.2 SE 0 6 0 3 1026.1 1027.4 0.0
21/05:30am 2.7 1.0 2.1 96 0.2 CALM 0 0 0 0 1026.0 - 0.0
21/05:00am 3.0 1.0 2.3 95 0.3 SE 2 6 1 3 1025.9 - 0.0
21/04:30am 3.1 1.4 2.1 93 0.4 CALM 0 0 0 0 1025.9 - 0.0
21/04:00am 4.4 1.6 3.2 92 0.5 SSE 7 9 4 5 1025.9 - 0.0
21/03:30am 3.2 -0.1 2.3 94 0.4 SSE 9 11 5 6 1025.9 - 0.0
21/03:00am 2.9 -0.1 2.2 95 0.3 SSE 7 9 4 5 1026.1 1027.4 0.0
21/02:30am 3.4 0.5 2.7 95 0.3 SE 7 9 4 5 1026.3 - 0.0
21/02:00am 3.0 0.0 1.8 92 0.5 ESE 7 9 4 5 1026.3 - 0.0
21/01:30am 4.2 1.5 2.4 88 0.7 SSE 6 9 3 5 1026.3 - 0.0
21/01:00am 5.3 2.1 3.3 87 0.8 SSE 9 9 5 5 1026.4 - 0.0
21/12:30am 6.6 3.6 4.3 85 1.0 SSE 9 50 5 27 1026.4 - 0.0
21/12:00am 6.6 3.8 3.2 79 1.4 S 7 9 4 5 1026.4 1027.7 0.0
 
Date/Time
EST
Temp
°C
App
Temp
°C
Dew
Point
Rel
Hum
%
Delta-T
°C
Wind Press
QNH
hPa
Press
MSL
hPa
Rain
since 9 am
mm
Dir
 
Spd
km/h
Gust
km/h
Spd
kts
Gust
kts
20/11:30pm 8.2 5.5 3.5 72 2.0 SE 7 9 4 5 1026.4 - 0.0
20/11:00pm 8.5 5.4 3.4 70 2.2 SE 9 11 5 6 1026.5 - 0.0
20/10:30pm 8.2 5.6 3.3 71 2.1 SE 6 11 3 6 1026.5 - 0.0
20/10:00pm 8.4 5.6 3.1 69 2.3 SE 7 11 4 6 1026.6 - 0.0
20/09:30pm 8.5 5.3 2.9 68 2.4 SE 9 13 5 7 1026.6 - 0.0
20/09:00pm 8.5 5.6 2.7 67 2.5 SE 7 9 4 5 1026.7 1028.0 0.0
20/08:30pm 8.6 5.3 2.4 65 2.6 SE 9 13 5 7 1026.6 - 0.0
20/08:00pm 9.0 5.7 2.3 63 2.9 SSE 9 15 5 8 1026.5 - 0.0
20/07:30pm 9.4 5.7 2.3 61 3.0 SSE 11 20 6 11 1026.6 - 0.0
20/07:00pm 9.6 5.2 2.5 61 3.1 SSE 15 26 8 14 1026.5 - 0.0
20/06:30pm 9.8 5.5 3.1 63 2.9 SSE 15 20 8 11 1026.3 - 0.0
20/06:00pm 9.9 5.5 2.5 60 3.2 SSE 15 19 8 10 1026.0 1027.3 0.0
20/05:30pm 10.2 5.9 3.5 63 3.0 SSE 15 26 8 14 1025.8 - 0.0
20/05:00pm 10.3 5.9 2.7 59 3.3 SSE 15 19 8 10 1025.7 - 0.0
20/04:30pm 10.5 5.3 2.6 58 3.4 SSE 19 26 10 14 1025.5 - 0.0
20/04:00pm 10.7 6.3 2.8 58 3.5 SE 15 20 8 11 1025.4 - 0.0
20/03:30pm 10.7 6.0 3.0 59 3.4 SSE 17 28 9 15 1025.3 - 0.0
20/03:00pm 10.7 6.9 3.7 62 3.1 SSE 13 20 7 11 1025.2 1026.4 0.0
20/02:30pm 10.7 6.1 3.5 61 3.2 SSE 17 24 9 13 1025.2 - 0.0
20/02:00pm 10.7 5.6 4.2 64 2.9 SSE 20 26 11 14 1025.1 - 0.0
20/01:30pm 10.8 5.8 3.4 60 3.3 SSE 19 26 10 14 1025.2 - 0.0
20/01:00pm 10.8 6.3 4.0 63 3.1 SSE 17 24 9 13 1025.5 - 0.0
20/12:30pm 10.8 5.8 3.4 60 3.3 SE 19 30 10 16 1025.8 - 0.0
20/12:00pm 10.6 5.6 3.4 61 3.2 S 19 30 10 16 1026.0 1027.3 0.0
20/11:30am 10.6 5.3 3.2 60 3.3 SSE 20 30 11 16 1026.2 - 0.0
20/11:00am 10.6 5.6 3.6 62 3.1 SE 19 30 10 16 1026.3 - 0.0
20/10:30am 10.0 4.9 3.3 63 2.9 SE 19 26 10 14 1026.3 - 0.0
20/10:00am 9.5 4.8 3.3 65 2.7 SSE 17 24 9 13 1026.4 - 0.0
20/09:30am 8.7 3.5 2.5 65 2.6 SE 19 32 10 17 1026.2 - 0.0
20/09:00am 8.5 3.9 3.6 71 2.1 SSE 17 26 9 14 1026.1 1027.4 0.0
20/08:30am 8.1 3.5 3.6 73 2.0 SSE 17 24 9 13 1025.8 - 0.0
20/08:00am 7.7 3.2 4.1 78 1.6 SSE 17 24 9 13 1025.6 - 0.0
20/07:30am 7.8 3.5 3.1 72 2.0 SSE 15 22 8 12 1025.2 - 0.0
20/07:00am 7.7 3.3 2.6 70 2.2 SSE 15 26 8 14 1025.0 - 0.0
20/06:30am 7.7 2.8 2.2 68 2.3 SSE 17 24 9 13 1024.8 - 0.0
20/06:00am 7.7 3.3 2.6 70 2.1 SSE 15 19 8 10 1024.6 1025.8 0.0
20/05:30am 7.7 4.0 2.6 70 2.2 SSE 11 15 6 8 1024.5 - 0.0
20/05:00am 7.8 3.7 2.5 69 2.2 SSE 13 22 7 12 1024.5 - 0.0
20/04:30am 7.8 3.4 2.5 69 2.2 SSE 15 24 8 13 1024.4 - 0.0
20/04:00am 7.8 3.4 2.5 69 2.2 SSE 15 22 8 12 1024.4 - 0.0
20/03:30am 7.7 2.9 2.6 70 2.2 SSE 17 20 9 11 1024.3 - 0.0
20/03:00am 7.8 3.0 2.7 70 2.2 SSE 17 22 9 12 1024.3 1025.5 0.0
20/02:30am 7.8 3.4 2.7 70 2.2 SSE 15 20 8 11 1024.5 - 0.0
20/02:00am 7.9 3.1 2.8 70 2.2 SSE 17 22 9 12 1024.6 - 0.0
20/01:30am 7.9 3.2 3.0 71 2.1 SSE 17 20 9 11 1024.6 - 0.0
20/01:00am 7.9 4.0 3.2 72 2.0 S 13 17 7 9 1024.7 - 0.0
20/12:30am 8.1 3.4 3.2 71 2.1 SSE 17 22 9 12 1024.8 - 0.0
20/12:00am 8.1 2.8 3.2 71 2.1 SSE 20 28 11 15 1024.7 1025.9 0.0
 
Date/Time
EST
Temp
°C
App
Temp
°C
Dew
Point
Rel
Hum
%
Delta-T
°C
Wind Press
QNH
hPa
Press
MSL
hPa
Rain
since 9 am
mm
Dir
 
Spd
km/h
Gust
km/h
Spd
kts
Gust
kts
19/11:30pm 8.1 3.1 3.4 72 2.0 SSE 19 26 10 14 1024.6 - 0.0
19/11:00pm 8.0 3.4 3.7 74 1.9 S 17 26 9 14 1024.7 - 0.0
19/10:30pm 7.9 3.8 4.1 77 1.7 S 15 20 8 11 1024.9 - 0.0
19/10:00pm 7.8 4.1 4.4 79 1.5 S 13 20 7 11 1024.9 - 0.0
19/09:30pm 7.7 4.0 4.7 81 1.3 S 13 19 7 10 1024.8 - 0.0
19/09:00pm 8.0 4.0 4.8 80 1.4 S 15 22 8 12 1024.7 1025.9 0.0
19/08:30pm 8.3 4.3 4.9 79 1.5 S 15 20 8 11 1024.6 - 0.0
19/08:00pm 8.4 4.4 5.0 79 1.5 S 15 26 8 14 1024.6 - 0.0
19/07:30pm 8.5 4.1 4.9 78 1.6 S 17 22 9 12 1024.4 - 0.0
19/07:00pm 8.7 4.7 5.1 78 1.6 S 15 20 8 11 1024.0 - 0.0
19/06:30pm 8.7 5.1 4.9 77 1.7 S 13 17 7 9 1023.7 - 0.0
19/06:00pm 9.5 5.4 4.3 70 2.3 S 15 22 8 12 1023.4 1024.6 0.0
19/05:30pm 9.9 5.8 2.5 60 3.2 S 13 20 7 11 1023.2 - 0.0
19/05:00pm 11.4 7.6 3.7 59 3.5 S 13 19 7 10 1023.0 - 0.0
19/04:30pm 11.1 6.1 3.6 60 3.4 SSE 19 26 10 14 1023.0 - 0.0
19/04:00pm 11.2 6.3 4.0 61 3.3 S 19 24 10 13 1022.9 - 0.0
19/03:30pm 11.3 6.4 4.3 62 3.2 S 19 28 10 15 1022.8 - 0.0
19/03:00pm 11.7 6.2 4.2 60 3.4 SSE 22 28 12 15 1022.7 1023.9 0.0
19/02:30pm 11.5 6.7 4.7 63 3.1 S 19 28 10 15 1022.6 - 0.0
19/02:00pm 11.7 6.8 4.9 63 3.1 SSE 20 32 11 17 1022.7 - 0.0
19/01:30pm 11.7 6.4 4.9 63 3.1 SSE 22 30 12 16 1022.8 - 0.0
19/01:00pm 11.7 6.0 5.1 64 3.1 SSE 24 32 13 17 1022.9 - 0.0
19/12:30pm 11.6 5.5 4.8 63 3.1 SSE 26 37 14 20 1023.2 - 0.0
19/12:00pm 11.3 6.1 5.4 67 2.7 S 22 33 12 18 1023.6 1024.8 0.0
19/11:30am 11.4 5.5 5.7 68 2.7 SSE 26 37 14 20 1023.9 - 0.0
19/11:00am 10.7 4.8 5.9 72 2.3 SSE 26 35 14 19 1023.9 - 0.0
19/10:30am 10.5 5.1 6.3 75 2.0 SSE 24 35 13 19 1023.7 - 0.0
19/10:00am 10.8 6.2 6.6 75 2.0 SSE 20 30 11 16 1023.6 - 0.0
19/09:30am 10.0 4.3 6.5 79 1.7 SSE 26 35 14 19 1023.5 - 0.0
19/09:00am 9.6 3.8 6.3 80 1.5 SSE 26 37 14 20 1023.4 1024.6 0.0
19/08:30am 8.9 3.5 6.2 83 1.3 SSE 24 33 13 18 1023.1 - 0.0
19/08:00am 8.3 3.2 5.9 85 1.1 SSE 22 32 12 17 1023.0 - 0.0
19/07:30am 8.0 3.2 5.6 85 1.1 SSE 20 30 11 16 1022.7 - 0.0
19/07:00am 7.9 4.4 5.4 84 1.1 S 13 22 7 12 1022.6 - 0.0
19/06:30am 8.0 4.5 5.5 84 1.1 S 13 20 7 11 1022.1 - 0.0
19/06:00am 8.3 4.5 5.9 85 1.1 S 15 30 8 16 1021.9 1023.1 0.0
19/05:30am 8.1 5.1 6.2 88 0.9 S 11 20 6 11 1021.7 - 0.0
19/05:00am 8.1 5.1 6.2 88 0.9 S 11 17 6 9 1021.5 - 0.0
19/04:30am 8.2 5.7 6.5 89 0.8 SSW 9 20 5 11 1021.5 - 0.0
19/04:00am 8.1 4.8 6.4 89 0.8 SSW 13 19 7 10 1021.4 - 0.0
19/03:30am 8.1 5.2 6.4 89 0.8 S 11 17 6 9 1021.5 - 0.0
19/03:00am 8.2 4.9 6.3 88 0.9 S 13 22 7 12 1021.6 1022.8 0.0
19/02:30am 8.3 4.2 6.1 86 1.0 S 17 30 9 16 1021.7 - 0.0
19/02:00am 8.6 5.6 6.1 84 1.2 S 11 19 6 10 1021.8 - 0.0
19/01:30am 8.4 4.3 6.0 85 1.1 S 17 26 9 14 1021.7 - 0.0
19/01:00am 8.3 4.5 5.9 85 1.1 S 15 24 8 13 1021.9 - 0.0
19/12:30am 8.2 4.8 6.0 86 1.0 S 13 24 7 13 1022.0 - 0.0
19/12:00am 8.3 4.2 6.3 87 0.9 S 17 28 9 15 1021.9 1023.1 0.0
 
Date/Time
EST
Temp
°C
App
Temp
°C
Dew
Point
Rel
Hum
%
Delta-T
°C
Wind Press
QNH
hPa
Press
MSL
hPa
Rain
since 9 am
mm
Dir
 
Spd
km/h
Gust
km/h
Spd
kts
Gust
kts
18/11:30pm 8.4 3.9 6.0 85 1.1 S 19 24 10 13 1022.1 - 0.0
18/11:00pm 8.3 4.1 5.9 85 1.1 S 17 32 9 17 1022.1 - 0.0
18/10:30pm 8.3 4.6 6.3 87 0.9 S 15 22 8 12 1022.1 - 0.0
18/10:00pm 8.4 3.4 6.4 87 0.9 S 22 30 12 16 1022.0 - 0.0
18/09:30pm 8.4 3.8 6.7 89 0.8 S 20 30 11 16 1022.1 - 0.0
18/09:00pm 8.6 4.2 6.6 87 0.9 S 19 33 10 18 1021.9 1023.1 0.0
18/08:30pm 8.6 4.2 6.7 88 0.9 S 19 33 10 18 1021.7 - 0.0
18/08:00pm 8.6 4.0 6.7 88 0.9 S 20 32 11 17 1021.4 - 0.0
18/07:30pm 8.9 4.4 6.3 84 1.2 S 19 30 10 16 1021.3 - 0.0
18/07:00pm 9.3 4.7 6.4 82 1.4 S 20 32 11 17 1021.0 - 0.0
18/06:30pm 9.5 5.4 6.2 80 1.5 S 17 28 9 15 1020.7 - 0.0
18/06:00pm 9.6 4.5 6.1 79 1.6 S 22 33 12 18 1020.4 1021.6 0.0
18/05:30pm 10.0 4.1 6.0 76 1.9 SSE 26 37 14 20 1020.1 - 0.0
18/05:00pm 10.6 5.5 5.8 72 2.2 SSE 22 33 12 18 1019.7 - 0.0
18/04:30pm 11.2 4.9 5.9 70 2.5 SSE 28 43 15 23 1019.5 - 0.0
18/04:00pm 11.2 6.0 5.7 69 2.6 SSE 22 32 12 17 1019.5 - 0.0
18/03:30pm 11.6 6.0 5.3 65 2.9 SSE 24 37 13 20 1019.3 - 0.0
18/03:00pm 11.9 5.5 5.1 63 3.2 SSE 28 44 15 24 1019.2 1020.4 0.0
18/02:30pm 12.2 6.1 4.7 60 3.5 SSE 26 37 14 20 1019.1 - 0.0
18/02:00pm 12.2 6.8 4.4 59 3.6 SSE 22 32 12 17 1019.1 - 0.0
18/01:30pm 12.4 7.0 4.6 59 3.6 SSE 22 35 12 19 1019.2 - 0.0
18/01:00pm 12.7 6.9 4.2 56 3.9 SSE 24 35 13 19 1019.5 - 0.0
18/12:30pm 12.0 4.5 3.5 56 3.8 SSE 32 44 17 24 1019.7 - 0.0

Other Formats:

Comma delimited format used in spreadsheet applications
http://www.bom.gov.au/fwo/IDV60801/IDV60801.94836.axf

JavaScript Object Notation format (JSON) in row-major order
http://www.bom.gov.au/fwo/IDV60801/IDV60801.94836.json